Time;durP1;ratioP1;P1;durP2;ratioP2;P2;SDS_P1;SDS_P2;PMS_P1;PMS_P2;Temp;Humidity;BMP_temperature;BMP_pressure;BME280_temperature;BME280_humidity;BME280_pressure;Samples;Min_cycle;Max_cycle;Signal;HPM_P1;HPM_P2
2024/03/10 00:01:01;;;;;;;29.40;16.85;;;;;;;14.07;48.29;99913.25;5009333;28;20047;-42
2024/03/10 00:03:27;;;;;;;29.30;16.77;;;;;;;13.82;48.86;99915.38;5009087;28;20080;-44
2024/03/10 00:05:52;;;;;;;32.10;17.73;;;;;;;14.00;48.45;99901.13;5009483;28;20042;-41
2024/03/10 00:08:17;;;;;;;33.05;17.67;;;;;;;14.12;48.30;99885.19;5009646;28;20067;-43
2024/03/10 00:10:43;;;;;;;32.38;17.63;;;;;;;14.01;48.35;99865.28;5019632;23;20113;-46
2024/03/10 00:13:08;;;;;;;30.27;17.20;;;;;;;13.81;48.45;99855.13;4971848;28;20027;-46
2024/03/10 00:15:34;;;;;;;29.90;17.15;;;;;;;13.82;48.41;99856.88;4971539;28;20038;-46
2024/03/10 00:18:00;;;;;;;32.60;17.67;;;;;;;13.74;48.50;99871.84;4972363;28;20031;-47
2024/03/10 00:20:25;;;;;;;32.15;17.73;;;;;;;13.54;48.66;99882.59;4969180;28;20032;-46
2024/03/10 00:22:51;;;;;;;30.95;16.85;;;;;;;13.47;48.50;99888.84;4952134;28;20035;-47
2024/03/10 00:25:16;;;;;;;30.60;17.48;;;;;;;13.84;47.74;99877.81;4952879;28;20134;-46
2024/03/10 00:27:41;;;;;;;33.17;17.55;;;;;;;13.89;47.59;99878.59;4951759;28;20050;-45
2024/03/10 00:30:09;;;;;;;29.58;17.08;;;;;;;13.94;47.21;99882.00;4952677;28;20438;-47
2024/03/10 00:32:35;;;;;;;31.23;17.40;;;;;;;13.54;47.88;99876.53;4951782;28;20088;-45
2024/03/10 00:35:01;;;;;;;30.92;17.90;;;;;;;13.09;48.58;99863.13;4952405;28;20043;-46
2024/03/10 00:37:27;;;;;;;34.00;16.98;;;;;;;13.13;49.01;99851.75;4950399;28;20553;-44
2024/03/10 00:39:53;;;;;;;31.65;17.20;;;;;;;13.14;49.17;99852.63;4951661;28;20391;-46
2024/03/10 00:42:20;;;;;;;30.67;17.38;;;;;;;13.25;49.02;99842.88;4951626;28;20038;-50
2024/03/10 00:44:50;;;;;;;32.50;17.48;;;;;;;13.06;49.30;99837.00;4955228;28;20039;-44
2024/03/10 00:47:16;;;;;;;29.95;16.73;;;;;;;13.19;48.66;99851.69;4955846;28;20036;-48
2024/03/10 00:49:41;;;;;;;32.30;16.20;;;;;;;13.45;48.08;99861.78;4955326;28;20043;-46
2024/03/10 00:52:07;;;;;;;32.42;16.30;;;;;;;13.62;47.71;99875.50;4955249;28;20413;-45
2024/03/10 00:54:34;;;;;;;31.95;17.05;;;;;;;13.58;47.52;99889.53;4955377;28;20086;-47
2024/03/10 00:56:59;;;;;;;32.58;17.27;;;;;;;13.31;48.30;99897.75;4955665;28;20035;-47
2024/03/10 00:59:25;;;;;;;31.33;16.80;;;;;;;13.42;47.60;99884.56;4954953;28;20042;-46
2024/03/10 01:01:50;;;;;;;29.48;16.70;;;;;;;13.78;46.73;99897.94;4954026;28;20110;-46
2024/03/10 01:04:15;;;;;;;30.08;16.10;;;;;;;13.48;47.69;99892.31;4955213;28;20413;-49
2024/03/10 01:06:41;;;;;;;29.17;16.10;;;;;;;13.59;47.07;99887.78;4954552;28;20067;-46
2024/03/10 01:09:08;;;;;;;29.80;16.20;;;;;;;13.56;47.03;99886.06;4955056;28;20035;-47
2024/03/10 01:11:39;;;;;;;27.65;16.35;;;;;;;13.36;47.53;99880.25;4954079;28;20044;-46
2024/03/10 01:14:05;;;;;;;28.73;16.15;;;;;;;13.43;47.63;99886.25;4954965;28;20109;-48
2024/03/10 01:16:33;;;;;;;30.58;16.58;;;;;;;13.43;47.42;99879.28;4955019;28;20046;-48
2024/03/10 01:18:59;;;;;;;29.95;16.20;;;;;;;13.19;48.39;99872.63;4953997;29;20565;-48
2024/03/10 01:21:24;;;;;;;28.25;15.82;;;;;;;13.32;48.03;99863.72;4955301;28;20122;-45
2024/03/10 01:23:51;;;;;;;31.33;16.60;;;;;;;12.88;48.84;99864.25;4954359;28;20455;-45
2024/03/10 01:26:17;;;;;;;33.75;17.38;;;;;;;12.90;49.13;99853.78;4954933;28;20561;-47
2024/03/10 01:28:43;;;;;;;32.95;17.05;;;;;;;13.14;48.73;99847.41;4954658;28;20043;-48
2024/03/10 01:31:09;;;;;;;29.65;16.38;;;;;;;13.33;48.24;99833.19;4955341;28;20177;-48
2024/03/10 01:33:35;;;;;;;32.35;17.25;;;;;;;12.94;49.38;99826.69;4954042;28;20558;-48
2024/03/10 01:36:04;;;;;;;30.70;16.63;;;;;;;13.22;48.90;99830.72;4954545;28;20035;-45
2024/03/10 01:38:30;;;;;;;32.35;17.65;;;;;;;13.25;48.78;99825.44;4954215;28;20039;-46
2024/03/10 01:40:55;;;;;;;31.95;17.05;;;;;;;13.14;49.13;99831.69;4954160;28;20028;-45
2024/03/10 01:43:21;;;;;;;32.33;17.52;;;;;;;12.99;49.67;99819.66;4954401;28;20118;-45
2024/03/10 01:45:48;;;;;;;32.75;17.02;;;;;;;13.03;49.54;99816.13;4954189;28;20046;-45
2024/03/10 01:48:14;;;;;;;34.90;17.80;;;;;;;12.57;50.57;99811.44;4954333;28;20118;-47
2024/03/10 01:50:39;;;;;;;34.08;17.02;;;;;;;12.67;50.57;99820.06;4953526;28;20039;-48
2024/03/10 01:53:05;;;;;;;32.70;17.50;;;;;;;12.82;50.66;99821.59;4953664;28;20031;-45
2024/03/10 01:55:30;;;;;;;31.67;17.30;;;;;;;12.78;50.50;99819.94;4954070;28;20043;-46
2024/03/10 01:57:56;;;;;;;32.13;17.38;;;;;;;12.70;50.16;99821.75;4954316;28;20043;-50
2024/03/10 02:00:21;;;;;;;31.25;17.15;;;;;;;12.73;50.48;99826.97;4953915;28;20736;-46
2024/03/10 02:02:47;;;;;;;31.85;17.42;;;;;;;12.70;51.01;99829.59;4952713;28;20129;-46
2024/03/10 02:05:13;;;;;;;32.90;17.65;;;;;;;12.43;51.30;99829.06;4953649;28;20035;-46
2024/03/10 02:07:39;;;;;;;30.73;17.92;;;;;;;12.82;50.57;99834.69;4953645;28;20062;-46
2024/03/10 02:10:06;;;;;;;32.55;17.58;;;;;;;12.39;51.75;99834.31;4954089;28;20027;-47
2024/03/10 02:12:32;;;;;;;31.17;17.10;;;;;;;12.75;51.04;99831.28;4952958;28;20039;-47
2024/03/10 02:14:58;;;;;;;33.28;17.33;;;;;;;12.69;51.31;99840.94;4953541;28;20075;-48
2024/03/10 02:17:25;;;;;;;32.58;17.65;;;;;;;12.56;51.60;99829.78;4953533;28;20212;-46
2024/03/10 02:19:52;;;;;;;31.98;17.65;;;;;;;12.31;52.18;99823.97;4953006;28;20050;-46
2024/03/10 02:22:18;;;;;;;33.15;17.92;;;;;;;12.42;51.89;99823.84;4952891;28;20041;-45
2024/03/10 02:24:47;;;;;;;33.42;17.45;;;;;;;12.70;51.20;99817.41;4953192;28;20043;-48
2024/03/10 02:27:16;;;;;;;32.03;18.00;;;;;;;12.66;51.47;99817.47;4953234;28;20040;-47
2024/03/10 02:48:51;;;;;;;32.50;17.75;;;;;;;11.98;53.20;99796.41;4952618;28;20086;-43
2024/03/10 02:51:17;;;;;;;31.77;17.05;;;;;;;11.96;53.17;99800.78;4952692;28;20031;-47
2024/03/10 02:53:43;;;;;;;31.50;17.50;;;;;;;12.32;52.59;99790.84;4951988;28;20653;-48
2024/03/10 02:56:08;;;;;;;32.78;17.92;;;;;;;12.20;52.55;99786.59;4952493;28;20122;-46
2024/03/10 02:58:33;;;;;;;34.60;18.67;;;;;;;12.38;52.46;99798.63;4952212;28;20126;-46
2024/03/10 03:00:59;;;;;;;31.67;17.67;;;;;;;12.42;52.26;99795.09;4952073;28;20478;-47
2024/03/10 03:03:25;;;;;;;31.70;17.85;;;;;;;12.37;52.29;99784.69;4952367;28;20074;-47
2024/03/10 03:05:51;;;;;;;31.27;18.02;;;;;;;12.45;51.88;99785.44;4951056;28;20031;-45
2024/03/10 03:08:17;;;;;;;32.38;18.10;;;;;;;12.16;53.05;99796.22;4953936;28;20089;-46
2024/03/10 03:10:42;;;;;;;34.35;18.88;;;;;;;11.99;53.59;99795.53;4952654;28;20565;-44
2024/03/10 03:13:08;;;;;;;35.00;18.33;;;;;;;12.22;52.32;99787.47;4952451;28;20063;-44
2024/03/10 03:15:34;;;;;;;33.63;17.98;;;;;;;12.32;52.47;99794.31;4952798;28;20039;-44
2024/03/10 03:18:00;;;;;;;32.25;17.83;;;;;;;12.19;52.83;99790.97;4953528;28;20486;-47
2024/03/10 03:20:26;;;;;;;34.78;17.65;;;;;;;12.43;52.07;99776.78;4952656;28;20039;-46
2024/03/10 03:22:51;;;;;;;33.70;18.63;;;;;;;12.53;52.01;99772.28;4951684;28;20550;-47
2024/03/10 03:25:17;;;;;;;34.42;18.38;;;;;;;12.37;52.26;99768.13;4952194;28;20039;-46
2024/03/10 03:27:54;;;;;;;35.13;18.73;;;;;;;12.21;53.08;99775.25;4951941;28;20098;-47
2024/03/10 03:30:19;;;;;;;35.72;18.48;;;;;;;12.13;53.15;99759.69;4951915;28;20041;-50
2024/03/10 03:32:45;;;;;;;32.88;18.08;;;;;;;11.84;53.92;99768.66;4951144;28;20526;-46
2024/03/10 03:35:10;;;;;;;33.95;18.50;;;;;;;12.34;52.90;99758.56;4952151;28;20178;-49
2024/03/10 03:37:36;;;;;;;36.88;18.33;;;;;;;12.23;53.27;99759.56;4952069;28;20028;-46
2024/03/10 03:40:03;;;;;;;34.63;18.60;;;;;;;12.51;52.59;99751.38;4951195;29;20538;-46
2024/03/10 03:42:30;;;;;;;34.35;18.52;;;;;;;12.08;53.94;99755.38;4950926;28;20493;-46
2024/03/10 03:44:55;;;;;;;35.35;19.10;;;;;;;12.17;53.28;99750.94;4951812;28;20043;-48
2024/03/10 03:47:20;;;;;;;39.72;19.80;;;;;;;11.95;54.16;99752.06;4951701;28;20035;-46
2024/03/10 03:49:46;;;;;;;34.70;19.42;;;;;;;12.02;54.54;99750.22;4951729;28;20118;-46
2024/03/10 03:52:11;;;;;;;35.72;19.17;;;;;;;12.35;52.88;99752.47;4951680;28;20031;-45
2024/03/10 03:54:39;;;;;;;37.83;20.20;;;;;;;12.30;53.40;99766.47;4951913;28;20119;-46
2024/03/10 03:57:08;;;;;;;35.78;19.45;;;;;;;12.30;53.77;99761.25;4952427;28;20065;-48
2024/03/10 03:59:33;;;;;;;35.58;19.25;;;;;;;12.35;52.80;99756.81;4951473;28;20073;-47
2024/03/10 04:01:59;;;;;;;36.25;19.67;;;;;;;12.39;53.00;99763.75;4951221;28;20059;-46
2024/03/10 04:04:24;;;;;;;37.78;19.90;;;;;;;12.11;53.82;99771.91;4950577;29;20035;-46
2024/03/10 04:06:49;;;;;;;38.03;20.25;;;;;;;12.24;53.64;99771.78;4950390;28;20103;-48
2024/03/10 04:09:15;;;;;;;39.25;20.50;;;;;;;12.23;53.55;99755.22;4952520;28;20490;-45
2024/03/10 04:11:40;;;;;;;37.40;20.00;;;;;;;12.18;53.18;99757.88;4951846;28;20109;-44
2024/03/10 04:14:07;;;;;;;37.20;20.67;;;;;;;12.55;53.00;99760.06;4951933;28;20085;-47
2024/03/10 04:16:33;;;;;;;35.03;19.70;;;;;;;12.46;53.08;99752.34;4951434;28;20494;-45
2024/03/10 04:18:58;;;;;;;37.72;20.48;;;;;;;12.14;53.49;99757.91;4953601;28;20069;-45
2024/03/10 04:21:24;;;;;;;37.97;20.17;;;;;;;12.34;52.96;99748.13;4955140;28;20036;-46
2024/03/10 04:23:51;;;;;;;37.85;20.80;;;;;;;12.09;53.99;99742.31;4955166;28;20118;-47
2024/03/10 04:26:18;;;;;;;39.20;20.15;;;;;;;12.22;53.54;99742.16;4955246;28;20035;-47
2024/03/10 04:28:43;;;;;;;37.20;20.30;;;;;;;12.51;53.13;99727.00;4953633;28;20126;-47
2024/03/10 04:31:09;;;;;;;39.58;20.98;;;;;;;12.15;54.31;99739.63;4954758;28;20119;-46
2024/03/10 04:33:34;;;;;;;38.83;21.33;;;;;;;12.06;54.60;99731.03;4954449;28;20050;-45
2024/03/10 04:36:00;;;;;;;39.45;20.67;;;;;;;12.12;54.30;99723.13;4954936;28;20126;-47
2024/03/10 04:38:26;;;;;;;39.50;21.00;;;;;;;12.20;54.15;99724.75;4955511;28;20107;-49
2024/03/10 04:40:51;;;;;;;40.90;21.65;;;;;;;12.54;53.17;99722.59;4954428;28;20045;-47
2024/03/10 04:43:16;;;;;;;39.90;20.95;;;;;;;12.11;54.30;99737.06;4954495;28;20031;-44
2024/03/10 04:45:42;;;;;;;39.63;20.45;;;;;;;12.54;53.05;99733.06;4954358;28;20490;-44
2024/03/10 04:48:08;;;;;;;41.50;21.20;;;;;;;11.88;54.97;99744.28;4955139;28;20047;-48
2024/03/10 04:50:33;;;;;;;39.33;21.05;;;;;;;11.81;55.53;99751.31;4955025;28;20070;-45
2024/03/10 04:52:58;;;;;;;40.28;21.35;;;;;;;12.20;54.00;99747.41;4955631;28;20129;-46
2024/03/10 04:55:24;;;;;;;39.45;22.35;;;;;;;12.05;54.58;99744.97;4955746;28;20391;-44
2024/03/10 04:57:49;;;;;;;40.25;21.65;;;;;;;12.10;54.42;99741.41;4954677;28;20157;-48
2024/03/10 05:00:18;;;;;;;40.55;21.73;;;;;;;11.86;55.34;99726.00;4953076;28;20078;-46
2024/03/10 05:02:46;;;;;;;38.03;21.27;;;;;;;11.96;54.90;99735.47;4954442;28;20043;-46
2024/03/10 05:05:12;;;;;;;39.85;21.15;;;;;;;11.89;55.09;99738.19;4955639;28;20038;-45
2024/03/10 05:07:39;;;;;;;39.47;21.00;;;;;;;11.72;55.11;99733.06;4955109;28;20039;-45
2024/03/10 05:10:04;;;;;;;39.25;21.10;;;;;;;11.48;56.31;99735.91;4954767;28;20039;-45
2024/03/10 05:12:30;;;;;;;40.60;21.33;;;;;;;12.03;54.48;99731.06;4953936;28;20450;-47
2024/03/10 05:14:55;;;;;;;40.47;21.90;;;;;;;11.87;54.70;99732.09;4954766;28;20094;-46
2024/03/10 05:17:21;;;;;;;39.78;21.17;;;;;;;11.96;54.62;99730.25;4954911;28;20042;-46
2024/03/10 05:19:46;;;;;;;40.13;21.17;;;;;;;11.97;54.78;99731.13;4954381;28;20457;-46
2024/03/10 05:22:12;;;;;;;40.78;21.80;;;;;;;11.64;55.10;99727.06;4954108;28;20031;-47
2024/03/10 05:24:41;;;;;;;37.65;20.90;;;;;;;11.99;54.43;99735.44;4954288;28;20038;-46
2024/03/10 05:27:06;;;;;;;40.70;20.88;;;;;;;11.88;55.18;99739.06;4954423;28;20039;-45
2024/03/10 05:29:32;;;;;;;41.70;21.65;;;;;;;11.48;55.75;99722.84;4953783;28;20035;-45
2024/03/10 05:31:57;;;;;;;39.75;21.70;;;;;;;11.64;55.76;99721.84;4954238;28;20035;-46
2024/03/10 05:34:22;;;;;;;38.95;20.88;;;;;;;11.72;55.03;99717.41;4954301;28;20055;-45
2024/03/10 05:36:48;;;;;;;39.22;22.17;;;;;;;11.60;55.48;99721.00;4954253;28;20097;-48
2024/03/10 05:39:14;;;;;;;42.28;21.85;;;;;;;11.47;56.15;99728.94;4954474;28;20058;-45
2024/03/10 05:41:40;;;;;;;42.83;22.30;;;;;;;11.60;55.38;99726.22;4953112;28;20039;-48
2024/03/10 05:44:06;;;;;;;41.85;21.90;;;;;;;11.25;56.17;99731.75;4953539;28;20035;-44
2024/03/10 05:46:32;;;;;;;41.45;21.70;;;;;;;11.37;56.06;99723.81;4953244;28;20043;-46
2024/03/10 05:49:00;;;;;;;40.40;22.25;;;;;;;11.28;56.61;99725.66;4953850;28;20031;-47
2024/03/10 05:51:26;;;;;;;42.17;22.08;;;;;;;11.59;55.57;99729.69;4953479;28;20031;-47
2024/03/10 05:53:52;;;;;;;40.83;21.42;;;;;;;11.45;55.95;99734.19;4953045;28;20039;-46
2024/03/10 05:56:17;;;;;;;41.83;21.30;;;;;;;11.58;55.28;99740.19;4953669;28;20023;-45
2024/03/10 05:58:42;;;;;;;41.38;21.55;;;;;;;11.38;56.02;99733.38;4952850;28;20122;-46
2024/03/10 06:01:08;;;;;;;42.95;22.02;;;;;;;10.91;57.40;99727.66;4953427;28;20568;-46
2024/03/10 06:03:33;;;;;;;42.17;20.95;;;;;;;10.98;57.21;99727.56;4952785;28;20039;-46
2024/03/10 06:05:59;;;;;;;44.05;22.70;;;;;;;11.44;56.00;99719.41;4953274;28;20027;-46
2024/03/10 06:08:24;;;;;;;41.53;21.35;;;;;;;11.31;56.42;99720.38;4953394;28;20047;-47
2024/03/10 06:10:53;;;;;;;43.22;22.00;;;;;;;11.03;56.75;99718.88;4953108;28;20177;-47
2024/03/10 06:13:19;;;;;;;38.20;20.70;;;;;;;11.56;55.50;99718.44;4954088;28;20031;-45
2024/03/10 06:15:44;;;;;;;42.03;21.00;;;;;;;11.44;55.85;99713.31;4953340;28;20042;-48
2024/03/10 06:18:18;;;;;;;40.65;21.60;;;;;;;11.46;55.62;99714.19;4953291;28;20032;-47
2024/03/10 06:26:12;;;;;;;41.72;20.50;;;;;;;11.44;55.62;99718.53;4953149;28;20034;-44
2024/03/10 06:28:38;;;;;;;43.05;20.88;;;;;;;10.96;56.83;99720.66;4952488;28;20122;-48
2024/03/10 06:31:04;;;;;;;42.83;21.27;;;;;;;10.80;57.25;99725.06;4952826;28;20039;-45
2024/03/10 06:33:29;;;;;;;39.15;20.45;;;;;;;11.20;56.71;99724.81;4952576;28;20090;-50
2024/03/10 06:35:55;;;;;;;42.28;21.38;;;;;;;11.02;56.80;99723.22;4952771;28;20035;-44
2024/03/10 06:38:20;;;;;;;40.13;21.23;;;;;;;10.99;56.67;99724.09;4952839;28;20030;-44
2024/03/10 06:40:45;;;;;;;41.17;21.77;;;;;;;11.31;56.00;99731.69;4953006;28;20063;-43
2024/03/10 06:43:11;;;;;;;41.10;21.60;;;;;;;11.36;56.06;99735.13;4953686;28;20032;-45
2024/03/10 06:45:36;;;;;;;40.67;21.58;;;;;;;10.80;57.45;99742.47;4953441;28;20043;-50
2024/03/10 06:48:02;;;;;;;43.25;22.25;;;;;;;10.80;57.29;99750.28;4953200;28;20410;-49
2024/03/10 06:50:28;;;;;;;39.53;20.63;;;;;;;11.37;56.04;99754.25;4952270;28;20097;-46
2024/03/10 06:52:53;;;;;;;42.05;21.52;;;;;;;11.23;56.26;99746.53;4951819;28;20033;-47
2024/03/10 06:55:19;;;;;;;43.03;21.77;;;;;;;11.54;55.51;99746.28;4952034;28;20035;-46
2024/03/10 06:57:44;;;;;;;40.55;20.83;;;;;;;11.42;55.57;99751.59;4951609;28;20387;-45
2024/03/10 07:00:12;;;;;;;39.20;21.15;;;;;;;11.32;55.61;99743.88;4952171;28;20118;-46
2024/03/10 07:02:39;;;;;;;41.03;21.88;;;;;;;10.98;56.63;99747.56;4951395;28;20426;-45
2024/03/10 07:05:05;;;;;;;40.67;21.05;;;;;;;11.26;55.93;99743.03;4952983;28;20042;-46
2024/03/10 07:07:30;;;;;;;41.95;20.58;;;;;;;11.05;56.63;99743.19;4952055;28;20122;-48
2024/03/10 07:09:55;;;;;;;40.45;20.95;;;;;;;11.60;55.36;99752.31;4951240;29;20042;-46
2024/03/10 07:12:23;;;;;;;41.97;21.83;;;;;;;11.42;55.70;99741.16;4951770;28;20477;-46
2024/03/10 07:14:48;;;;;;;39.13;20.40;;;;;;;11.42;55.62;99744.66;4951500;28;20039;-47
2024/03/10 07:17:14;;;;;;;42.40;21.58;;;;;;;11.77;54.72;99747.00;4952070;28;20498;-45
2024/03/10 07:19:41;;;;;;;39.40;20.15;;;;;;;11.25;55.42;99729.13;4952053;28;20035;-44
2024/03/10 07:22:06;;;;;;;42.10;20.98;;;;;;;11.66;54.85;99744.44;4951585;28;20106;-45
2024/03/10 07:24:32;;;;;;;38.33;20.60;;;;;;;11.26;55.92;99748.25;4951502;28;20063;-49
2024/03/10 07:26:57;;;;;;;39.20;19.90;;;;;;;11.53;55.30;99747.16;4952066;28;20062;-45
2024/03/10 07:29:23;;;;;;;39.97;21.02;;;;;;;11.88;54.43;99760.81;4953309;28;20039;-45
2024/03/10 07:31:48;;;;;;;40.22;20.77;;;;;;;11.69;55.09;99767.06;4950785;28;20043;-45
2024/03/10 07:34:13;;;;;;;41.78;21.70;;;;;;;11.45;55.12;99772.47;4951746;28;20065;-48
2024/03/10 07:36:39;;;;;;;39.83;21.50;;;;;;;11.26;55.32;99762.19;4951628;28;20145;-47
2024/03/10 07:39:08;;;;;;;37.97;20.70;;;;;;;11.44;55.17;99760.31;4952435;28;20083;-45
2024/03/10 07:41:33;;;;;;;42.42;20.55;;;;;;;11.41;54.77;99761.19;4951049;28;20154;-46
2024/03/10 07:43:59;;;;;;;39.25;20.45;;;;;;;11.44;54.79;99774.22;4950214;29;20059;-46
2024/03/10 07:46:25;;;;;;;39.33;20.95;;;;;;;11.92;54.17;99772.09;4951798;28;20070;-46
2024/03/10 07:48:51;;;;;;;37.38;19.80;;;;;;;12.07;53.35;99769.34;4952204;28;20035;-45
2024/03/10 07:51:17;;;;;;;38.72;20.88;;;;;;;11.85;53.99;99770.41;4952271;28;20031;-47
2024/03/10 07:53:42;;;;;;;39.63;20.00;;;;;;;12.11;52.85;99768.41;4953619;28;20031;-48
2024/03/10 07:56:08;;;;;;;39.25;20.98;;;;;;;11.72;53.84;99770.50;4956525;28;20041;-46
2024/03/10 07:58:34;;;;;;;39.60;20.85;;;;;;;11.65;53.61;99754.88;4956257;28;20043;-46
2024/03/10 08:00:59;;;;;;;39.42;20.30;;;;;;;11.88;53.82;99763.44;4955392;28;20106;-47
2024/03/10 08:03:25;;;;;;;38.75;20.90;;;;;;;11.63;53.84;99754.91;4955573;28;20030;-47
2024/03/10 08:05:50;;;;;;;38.50;20.90;;;;;;;11.96;54.06;99758.97;4955424;28;20399;-46
2024/03/10 08:08:16;;;;;;;36.30;19.77;;;;;;;11.72;54.34;99752.22;4955735;28;20183;-45
2024/03/10 08:10:41;;;;;;;40.22;20.58;;;;;;;11.59;54.70;99745.38;4954939;28;20410;-46
2024/03/10 08:13:07;;;;;;;37.25;19.65;;;;;;;12.05;54.12;99737.13;4954692;28;20085;-47
2024/03/10 08:15:33;;;;;;;37.78;19.92;;;;;;;11.95;53.47;99738.13;4954449;28;20063;-45
2024/03/10 08:18:01;;;;;;;40.33;19.83;;;;;;;11.66;54.78;99736.59;4955245;28;20028;-45
2024/03/10 08:20:27;;;;;;;36.97;19.27;;;;;;;11.98;53.65;99731.09;4955096;28;20055;-46
2024/03/10 08:22:52;;;;;;;37.78;19.63;;;;;;;11.87;54.23;99739.94;4954246;28;20074;-45
2024/03/10 08:25:18;;;;;;;35.58;19.42;;;;;;;11.96;53.52;99738.09;4954738;28;20083;-47
2024/03/10 08:27:44;;;;;;;37.15;19.52;;;;;;;11.75;53.81;99739.19;4954551;28;20043;-47
2024/03/10 08:30:11;;;;;;;36.70;19.95;;;;;;;12.11;53.17;99745.78;4954819;28;20043;-48
2024/03/10 08:32:36;;;;;;;38.75;19.85;;;;;;;12.16;52.68;99728.28;4953452;28;20560;-45
2024/03/10 08:35:09;;;;;;;35.50;19.10;;;;;;;11.87;52.92;99730.34;4955271;28;20031;-47
2024/03/10 08:37:38;;;;;;;38.47;18.90;;;;;;;12.17;53.02;99734.38;4954757;28;20042;-45
2024/03/10 08:40:10;;;;;;;36.65;19.10;;;;;;;12.42;52.43;99730.59;4955015;28;20046;-45
2024/03/10 08:42:41;;;;;;;35.92;19.13;;;;;;;11.96;52.75;99735.47;4953957;28;20498;-45
2024/03/10 08:45:10;;;;;;;36.03;18.88;;;;;;;12.11;52.62;99742.28;4954533;28;20039;-46
2024/03/10 08:47:43;;;;;;;35.33;18.92;;;;;;;12.71;51.21;99738.06;4954419;28;20039;-47
2024/03/10 08:50:10;;;;;;;36.97;19.27;;;;;;;12.50;51.46;99740.97;4954699;28;20118;-45
2024/03/10 08:52:36;;;;;;;33.95;18.52;;;;;;;12.21;52.53;99736.06;4953665;28;20182;-45
2024/03/10 08:55:05;;;;;;;34.75;18.60;;;;;;;12.72;51.46;99737.19;4954332;28;20038;-44
2024/03/10 08:57:32;;;;;;;37.00;18.48;;;;;;;12.30;51.93;99745.56;4952735;28;20273;-44
2024/03/10 08:59:59;;;;;;;36.92;18.92;;;;;;;12.19;52.38;99753.53;4954485;28;20035;-45
2024/03/10 09:02:24;;;;;;;34.53;18.67;;;;;;;12.22;52.44;99740.41;4953897;28;20726;-48
2024/03/10 09:04:50;;;;;;;33.63;18.40;;;;;;;12.57;51.77;99738.25;4953354;28;20122;-44
2024/03/10 09:07:15;;;;;;;33.90;18.02;;;;;;;12.19;52.58;99750.91;4954236;28;20038;-45
2024/03/10 09:09:40;;;;;;;33.25;18.77;;;;;;;12.98;50.83;99749.91;4954062;28;20577;-44
2024/03/10 09:12:06;;;;;;;35.95;18.80;;;;;;;13.04;50.33;99749.81;4954675;28;20043;-44
2024/03/10 09:14:32;;;;;;;32.80;17.58;;;;;;;12.92;50.86;99757.84;4954077;28;20513;-47
2024/03/10 09:17:00;;;;;;;32.28;17.08;;;;;;;13.38;50.14;99750.19;4954453;28;20027;-46
2024/03/10 09:19:25;;;;;;;34.35;18.30;;;;;;;13.22;49.80;99760.06;4954094;28;20031;-46
2024/03/10 09:21:50;;;;;;;37.40;19.30;;;;;;;13.37;49.43;99757.19;4953051;28;20090;-45
2024/03/10 09:24:16;;;;;;;33.85;18.73;;;;;;;13.02;49.69;99751.59;4954428;28;20046;-45
2024/03/10 09:26:41;;;;;;;32.80;18.33;;;;;;;12.69;50.80;99752.91;4953500;28;20063;-46
2024/03/10 09:29:07;;;;;;;32.53;17.88;;;;;;;13.04;49.87;99747.22;4954008;28;20035;-45
2024/03/10 09:31:32;;;;;;;32.85;18.13;;;;;;;12.76;50.92;99754.56;4953121;28;20138;-47
2024/03/10 09:33:59;;;;;;;31.20;17.80;;;;;;;12.87;50.77;99743.94;4953369;28;20034;-44
2024/03/10 09:36:25;;;;;;;33.42;18.13;;;;;;;13.34;49.62;99746.78;4953945;28;20027;-45
2024/03/10 09:38:52;;;;;;;33.08;18.00;;;;;;;13.58;49.13;99734.16;4953193;28;20114;-48
2024/03/10 09:41:17;;;;;;;33.10;17.73;;;;;;;12.88;50.06;99736.06;4953429;28;20053;-49
2024/03/10 09:43:48;;;;;;;32.72;17.65;;;;;;;13.48;49.41;99741.28;4952922;28;20698;-45
2024/03/10 09:46:14;;;;;;;30.48;17.17;;;;;;;13.26;49.86;99724.22;4953465;28;20042;-49
2024/03/10 09:48:43;;;;;;;35.50;18.30;;;;;;;13.09;50.15;99719.22;4953251;28;20067;-46
2024/03/10 09:51:15;;;;;;;32.17;17.63;;;;;;;13.35;49.14;99734.56;4953378;28;20031;-45
2024/03/10 09:53:41;;;;;;;31.50;17.83;;;;;;;13.30;49.30;99731.97;4952783;28;20517;-45
2024/03/10 09:56:08;;;;;;;33.03;18.13;;;;;;;13.53;48.75;99729.03;4953216;28;20034;-45
2024/03/10 09:58:43;;;;;;;32.35;17.80;;;;;;;13.62;49.25;99718.38;4953645;28;20601;-45
2024/03/10 10:01:13;;;;;;;32.67;17.95;;;;;;;13.85;49.12;99717.09;4953573;28;20031;-47
2024/03/10 10:03:43;;;;;;;29.92;17.15;;;;;;;14.30;47.77;99715.34;4952958;28;20031;-49
2024/03/10 10:06:13;;;;;;;32.45;17.73;;;;;;;14.30;48.01;99712.72;4954073;28;20498;-45
2024/03/10 10:08:39;;;;;;;34.63;18.27;;;;;;;14.07;47.94;99718.44;4953871;28;20565;-46
2024/03/10 10:11:08;;;;;;;30.10;17.15;;;;;;;13.88;48.75;99720.53;4954487;28;20035;-44
2024/03/10 10:13:35;;;;;;;32.90;17.58;;;;;;;14.44;47.69;99719.47;4953794;28;20490;-44
2024/03/10 10:16:08;;;;;;;33.08;18.50;;;;;;;14.60;46.96;99738.34;4952772;28;20032;-46
2024/03/10 10:18:36;;;;;;;32.72;17.40;;;;;;;14.81;46.63;99734.41;4953086;28;20508;-47
2024/03/10 10:21:07;;;;;;;31.17;17.30;;;;;;;14.74;46.83;99733.69;4952704;28;20047;-46
2024/03/10 10:23:33;;;;;;;31.70;17.67;;;;;;;15.21;46.25;99735.22;4952407;28;20647;-47
2024/03/10 10:26:09;;;;;;;30.92;17.52;;;;;;;14.47;46.43;99724.63;4953319;28;20034;-46
2024/03/10 10:28:37;;;;;;;29.73;16.45;;;;;;;15.03;46.12;99722.53;4952847;28;20055;-46
2024/03/10 10:31:16;;;;;;;30.90;17.00;;;;;;;15.20;46.35;99722.13;4953228;28;20063;-46
2024/03/10 10:33:45;;;;;;;32.10;17.77;;;;;;;15.28;45.22;99728.94;4952303;28;20043;-47
2024/03/10 10:36:11;;;;;;;29.85;17.13;;;;;;;15.36;45.25;99734.88;4951615;29;20039;-46
2024/03/10 10:38:39;;;;;;;30.30;17.33;;;;;;;15.63;44.87;99729.84;4952908;28;20051;-49
2024/03/10 10:41:07;;;;;;;31.40;16.52;;;;;;;15.54;44.92;99730.97;4953147;28;20062;-46
2024/03/10 10:43:39;;;;;;;31.88;17.38;;;;;;;15.73;44.82;99732.22;4952388;28;20031;-46
2024/03/10 10:46:06;;;;;;;28.55;16.98;;;;;;;15.92;44.42;99734.38;4953179;28;20108;-46
2024/03/10 10:48:35;;;;;;;29.08;16.70;;;;;;;16.12;43.88;99743.44;4952749;28;20051;-48
2024/03/10 10:51:02;;;;;;;29.05;16.73;;;;;;;16.14;43.78;99735.53;4951972;28;20819;-50
2024/03/10 10:53:27;;;;;;;28.33;16.95;;;;;;;15.78;43.77;99730.34;4952956;28;20024;-45
2024/03/10 10:55:53;;;;;;;31.05;17.33;;;;;;;15.59;43.94;99733.47;4953130;28;20035;-46
2024/03/10 10:58:21;;;;;;;30.20;17.25;;;;;;;16.05;43.58;99739.25;4953320;28;20035;-46
2024/03/10 11:00:53;;;;;;;29.17;16.48;;;;;;;16.08;43.39;99743.56;4952582;28;20031;-43
2024/03/10 11:03:24;;;;;;;29.90;17.27;;;;;;;16.12;43.19;99750.47;4952824;28;20538;-47
2024/03/10 11:06:02;;;;;;;26.90;16.33;;;;;;;15.76;43.78;99755.78;4952353;28;20394;-47
2024/03/10 11:08:39;;;;;;;28.48;15.80;;;;;;;15.84;43.81;99760.84;4951336;29;20134;-44
2024/03/10 11:11:05;;;;;;;27.88;15.95;;;;;;;15.89;43.30;99771.25;4952257;28;20043;-46
2024/03/10 11:13:30;;;;;;;30.00;17.05;;;;;;;16.09;43.08;99775.09;4951984;28;20568;-48
2024/03/10 11:16:09;;;;;;;30.63;17.02;;;;;;;15.87;43.75;99760.75;4952310;28;20035;-47
2024/03/10 11:18:38;;;;;;;31.40;17.40;;;;;;;15.97;43.83;99761.41;4952046;28;20074;-47
2024/03/10 11:21:06;;;;;;;29.85;17.08;;;;;;;16.06;43.59;99763.78;4952595;28;20094;-49
2024/03/10 11:24:08;;;;;;;29.42;17.52;;;;;;;15.83;44.50;99780.16;4952264;28;20043;-49
2024/03/10 11:26:34;;;;;;;28.73;16.73;;;;;;;15.90;44.31;99789.63;4944689;28;20126;-47
2024/03/10 11:29:00;;;;;;;29.80;17.15;;;;;;;16.02;43.47;99772.66;4952759;28;20051;-46
2024/03/10 11:31:35;;;;;;;29.80;17.15;;;;;;;15.94;43.62;99766.72;4952327;28;20434;-46
2024/03/10 11:34:04;;;;;;;29.02;16.30;;;;;;;16.03;43.75;99772.63;4951805;28;20043;-45
2024/03/10 11:36:37;;;;;;;28.55;16.40;;;;;;;15.80;43.70;99772.31;4952430;28;20028;-47
2024/03/10 11:39:04;;;;;;;26.92;16.38;;;;;;;15.72;43.82;99774.31;4949816;29;20042;-47